createdAt,value
2019-04-16T03:48:10.179Z,6.70
2019-04-16T03:50:45.376Z,6.50
2019-04-16T03:53:16.347Z,6.60
2019-04-16T03:55:43.025Z,6.50
2019-04-16T03:58:11.052Z,6.90
2019-04-16T04:00:43.729Z,6.70
2019-04-16T04:03:08.745Z,6.60
2019-04-16T04:05:36.721Z,6.60
2019-04-16T04:08:04.707Z,6.80
2019-04-16T04:10:36.763Z,6.70
2019-04-16T04:13:04.855Z,6.60
2019-04-16T04:15:32.091Z,6.50
2019-04-16T04:18:00.066Z,6.50
2019-04-16T04:20:28.044Z,6.50
2019-04-16T04:22:57.091Z,6.40
2019-04-16T04:25:25.916Z,6.50
2019-04-16T04:27:53.917Z,6.50
2019-04-16T04:30:25.661Z,6.30
2019-04-16T04:32:53.303Z,6.30
2019-04-16T04:35:22.329Z,6.40
2019-04-16T04:37:50.362Z,6.20
2019-04-16T04:40:18.350Z,6.20
2019-04-16T04:42:46.358Z,6.10
2019-04-16T04:45:14.464Z,6.10
2019-04-16T04:47:42.457Z,6.10
2019-04-16T04:50:10.506Z,6.20
2019-04-16T04:52:38.485Z,6.20
2019-04-16T04:55:06.636Z,6.30
2019-04-16T04:57:34.613Z,6.40
2019-04-16T05:00:05.573Z,6.50
2019-04-16T05:02:33.638Z,6.40
2019-04-16T05:05:03.291Z,6.40
2019-04-16T05:07:31.295Z,6.40
2019-04-16T05:09:59.376Z,6.40
2019-04-16T05:12:27.353Z,6.50
2019-04-16T05:14:58.680Z,6.70
2019-04-16T05:17:26.848Z,6.80
2019-04-16T05:19:55.016Z,6.90
2019-04-16T05:22:23.114Z,6.90
2019-04-16T05:24:51.213Z,7.00
2019-04-16T05:27:19.271Z,7.20
2019-04-16T05:29:48.858Z,7.60
2019-04-16T05:32:17.175Z,7.70
2019-04-16T05:34:45.240Z,8.10
2019-04-16T05:37:13.207Z,8.10
2019-04-16T05:39:41.271Z,8.40
2019-04-16T05:42:09.379Z,8.70
2019-04-16T05:44:37.421Z,8.70
2019-04-16T05:47:05.393Z,8.70
2019-04-16T05:49:33.449Z,8.60
2019-04-16T05:52:03.845Z,8.50
2019-04-16T05:54:35.929Z,8.10
2019-04-16T05:57:08.528Z,8.10
2019-04-16T05:59:36.606Z,8.20
2019-04-16T06:02:06.337Z,8.50
2019-04-16T06:04:34.370Z,8.20
2019-04-16T06:07:07.136Z,8.30
2019-04-16T06:09:32.154Z,9.00
2019-04-16T06:12:00.190Z,9.30
2019-04-16T06:14:38.625Z,9.50
2019-04-16T06:17:25.678Z,9.70
2019-04-16T06:19:57.577Z,9.80
2019-04-16T06:22:30.215Z,10.00
2019-04-16T06:25:16.266Z,10.00
2019-04-16T06:28:02.108Z,10.20
2019-04-16T06:30:33.766Z,10.10
2019-04-16T06:33:09.000Z,10.10
2019-04-16T06:35:54.949Z,10.10
2019-04-16T06:38:24.582Z,10.10
2019-04-16T06:41:06.333Z,9.70
2019-04-16T06:43:47.889Z,10.00
2019-04-16T06:46:17.591Z,10.50
2019-04-16T06:48:50.156Z,10.80
2019-04-16T06:51:31.926Z,11.00
2019-04-16T06:54:17.752Z,11.10
2019-04-16T06:56:50.488Z,11.20
2019-04-16T06:59:22.848Z,11.20
2019-04-16T07:02:10.585Z,11.30
2019-04-16T07:04:42.613Z,11.30
2019-04-16T07:07:15.063Z,11.30
2019-04-16T07:09:46.012Z,11.30
2019-04-16T07:12:15.916Z,11.50
2019-04-16T07:14:45.566Z,11.50
2019-04-16T07:17:13.649Z,11.60
2019-04-16T07:19:42.126Z,11.80
2019-04-16T07:22:11.392Z,11.90
2019-04-16T07:24:39.928Z,12.00
2019-04-16T07:27:08.143Z,12.10
2019-04-16T07:29:37.847Z,12.10
2019-04-16T07:32:13.323Z,12.10
2019-04-16T07:34:49.300Z,12.20
2019-04-16T07:37:33.866Z,12.30
2019-04-16T07:40:10.465Z,12.30
2019-04-16T07:42:52.083Z,12.40
2019-04-16T07:45:20.125Z,12.30
2019-04-16T07:47:51.623Z,12.30
2019-04-16T07:50:21.103Z,12.30
2019-04-16T07:52:53.306Z,12.40
2019-04-16T07:55:37.612Z,12.30
2019-04-16T07:58:05.800Z,12.40
2019-04-16T08:00:33.786Z,12.50
2019-04-16T08:03:01.868Z,12.60
2019-04-16T08:05:29.990Z,12.70
2019-04-16T08:07:58.110Z,12.70
2019-04-16T08:10:26.120Z,12.60
2019-04-16T08:12:57.195Z,12.60
2019-04-16T08:15:25.542Z,12.50
2019-04-16T08:17:53.562Z,12.70
2019-04-16T08:20:21.678Z,12.70
2019-04-16T08:22:50.956Z,12.70
2019-04-16T08:25:20.633Z,12.70
2019-04-16T08:27:50.801Z,12.70
2019-04-16T08:30:18.394Z,12.80
2019-04-16T08:32:48.921Z,12.80
2019-04-16T08:35:16.102Z,12.90
2019-04-16T08:37:49.136Z,13.00
2019-04-16T08:40:13.776Z,13.10
2019-04-16T08:42:44.609Z,13.10
2019-04-16T08:45:11.726Z,13.30
2019-04-16T08:47:44.616Z,13.50
2019-04-16T08:50:11.769Z,13.60
2019-04-16T08:52:41.718Z,13.50
2019-04-16T08:55:08.861Z,13.50
2019-04-16T08:57:36.869Z,13.70
2019-04-16T09:00:07.910Z,13.70
2019-04-16T09:02:35.920Z,13.80
2019-04-16T09:05:06.925Z,13.90
2019-04-16T09:07:41.162Z,13.70
2019-04-16T09:10:18.498Z,14.00
2019-04-16T09:12:50.709Z,14.00
2019-04-16T09:15:22.093Z,14.20
2019-04-16T09:17:51.606Z,14.10
2019-04-16T09:20:23.024Z,14.30
2019-04-16T09:22:53.816Z,14.50
2019-04-16T09:25:38.163Z,14.60
2019-04-16T09:28:25.227Z,14.60
2019-04-16T09:30:46.606Z,14.40
2019-04-16T09:33:16.163Z,14.30
2019-04-16T09:35:48.793Z,14.10
2019-04-16T09:38:24.375Z,14.30
2019-04-16T09:41:03.002Z,14.00
2019-04-16T09:43:32.688Z,14.10
2019-04-16T09:46:10.334Z,14.70
2019-04-16T09:48:34.511Z,14.90
2019-04-16T09:51:00.214Z,15.20
2019-04-16T09:53:33.940Z,15.00
2019-04-16T09:55:59.695Z,15.30
2019-04-16T09:58:27.766Z,15.40
2019-04-16T10:01:09.362Z,15.50
2019-04-16T10:03:39.013Z,15.60
2019-04-16T10:06:07.064Z,15.50
2019-04-16T10:08:35.054Z,15.50
2019-04-16T10:11:06.113Z,15.70
2019-04-16T10:13:35.842Z,15.50
2019-04-16T10:16:02.560Z,15.50
2019-04-16T10:18:34.654Z,15.60
2019-04-16T10:21:00.350Z,15.80
2019-04-16T10:23:32.935Z,16.10
2019-04-16T10:26:01.028Z,16.20
2019-04-16T10:28:34.005Z,16.30
2019-04-16T10:31:03.233Z,16.10
2019-04-16T10:33:31.263Z,16.00
2019-04-16T10:36:00.967Z,15.90
2019-04-16T10:38:46.760Z,16.30
2019-04-16T10:41:16.442Z,16.30
2019-04-16T10:43:51.898Z,16.30
2019-04-16T10:46:27.546Z,16.50
2019-04-16T10:48:57.263Z,16.40
2019-04-16T10:51:26.965Z,16.40
2019-04-16T10:53:59.122Z,16.10
2019-04-16T10:56:45.761Z,16.30
2019-04-16T10:59:31.752Z,16.40
2019-04-16T11:02:01.541Z,16.70
2019-04-16T11:04:34.127Z,16.90
2019-04-16T11:07:03.826Z,16.90
2019-04-16T11:09:31.827Z,16.80
2019-04-16T11:12:04.752Z,16.70
2019-04-16T11:14:29.537Z,16.90
2019-04-16T11:16:57.551Z,16.80
2019-04-16T11:19:25.619Z,17.10
2019-04-16T11:21:53.699Z,17.00
2019-04-16T11:24:21.824Z,17.40
2019-04-16T11:26:49.884Z,17.60
2019-04-16T11:29:17.932Z,17.40
2019-04-16T11:31:46.034Z,17.30
2019-04-16T11:34:14.342Z,17.60
2019-04-16T11:36:42.439Z,17.50
2019-04-16T11:39:10.793Z,17.70
2019-04-16T11:41:38.807Z,17.60
2019-04-16T11:44:14.778Z,17.60
2019-04-16T11:46:36.585Z,17.70
2019-04-16T11:49:04.636Z,18.00
2019-04-16T11:51:32.679Z,18.00
2019-04-16T11:54:00.697Z,18.10
2019-04-16T11:56:28.732Z,18.20
2019-04-16T11:58:57.615Z,18.20
2019-04-16T12:01:30.314Z,18.40
2019-04-16T12:04:16.448Z,18.40
2019-04-16T12:07:05.179Z,18.40
2019-04-16T12:09:48.592Z,18.20
2019-04-16T12:12:24.271Z,18.40
2019-04-16T12:14:53.957Z,18.50
2019-04-16T12:17:32.221Z,18.50
2019-04-16T12:20:02.361Z,18.80
2019-04-16T12:22:32.171Z,18.70
2019-04-16T12:25:07.783Z,18.80
2019-04-16T12:27:43.206Z,18.60
2019-04-16T12:30:29.586Z,18.80
2019-04-16T12:32:59.244Z,19.00
2019-04-16T12:35:34.774Z,18.80
2019-04-16T12:38:11.943Z,19.00
2019-04-16T12:40:58.114Z,18.90
2019-04-16T12:43:39.793Z,18.90
2019-04-16T12:46:18.537Z,19.20
2019-04-16T12:48:54.009Z,19.40
2019-04-16T12:51:23.985Z,19.60
2019-04-16T12:54:11.456Z,19.80
2019-04-16T12:56:57.543Z,19.80
2019-04-16T12:59:42.079Z,20.00
2019-04-16T13:02:20.255Z,19.80
2019-04-16T13:04:49.928Z,20.00
2019-04-16T13:07:19.572Z,20.00
2019-04-16T13:09:55.093Z,20.10
2019-04-16T13:12:27.444Z,20.20
2019-04-16T13:15:01.334Z,20.20
2019-04-16T13:17:40.041Z,20.30
2019-04-16T13:20:29.312Z,20.10
2019-04-16T13:23:09.119Z,20.30
2019-04-16T13:25:55.068Z,20.40
2019-04-16T13:28:23.841Z,20.50
2019-04-16T13:30:52.065Z,20.40
2019-04-16T13:33:20.137Z,20.70
2019-04-16T13:35:48.124Z,20.80
2019-04-16T13:38:17.773Z,20.80
2019-04-16T13:40:45.761Z,21.00
2019-04-16T13:43:15.409Z,21.00
2019-04-16T13:45:43.468Z,20.90
2019-04-16T13:48:18.945Z,20.60
2019-04-16T13:50:48.564Z,20.30
2019-04-16T13:53:34.056Z,20.60
2019-04-16T13:56:18.806Z,20.40
2019-04-16T13:59:00.640Z,19.90
2019-04-16T14:01:33.210Z,19.90
2019-04-16T14:04:01.496Z,20.40
2019-04-16T14:06:29.609Z,20.50
2019-04-16T14:08:57.605Z,20.50
2019-04-16T14:11:25.600Z,20.60
2019-04-16T14:13:53.650Z,20.70
2019-04-16T14:16:21.708Z,20.60
2019-04-16T14:18:49.712Z,20.60
2019-04-16T14:21:17.702Z,20.40
2019-04-16T14:23:45.706Z,20.30
2019-04-16T14:26:13.712Z,20.30
2019-04-16T14:28:52.052Z,20.30
2019-04-16T14:31:16.406Z,20.40
2019-04-16T14:33:45.994Z,20.50
2019-04-16T14:36:14.131Z,20.60
2019-04-16T14:38:43.836Z,20.80
2019-04-16T14:41:14.994Z,20.90
2019-04-16T14:43:45.946Z,20.90
2019-04-16T14:46:14.031Z,20.60
2019-04-16T14:48:45.295Z,20.30
2019-04-16T14:51:11.857Z,20.20
2019-04-16T14:53:41.550Z,20.30
2019-04-16T14:56:20.027Z,20.10
2019-04-16T14:59:01.514Z,20.50
2019-04-16T15:01:31.133Z,20.60
2019-04-16T15:04:00.773Z,20.60
2019-04-16T15:06:45.201Z,20.70
2019-04-16T15:09:14.857Z,20.70
2019-04-16T15:12:01.872Z,20.60
2019-04-16T15:14:38.113Z,20.30
2019-04-16T15:17:07.738Z,19.90
2019-04-16T15:19:37.379Z,19.70
2019-04-16T15:22:21.879Z,19.60
2019-04-16T15:25:07.992Z,19.60
2019-04-16T15:27:43.364Z,19.70
2019-04-16T15:30:13.073Z,19.50
2019-04-16T15:32:42.698Z,19.30
2019-04-16T15:35:24.200Z,19.40
2019-04-16T15:37:58.059Z,19.50
2019-04-16T15:40:30.925Z,19.50
2019-04-16T15:43:09.368Z,19.70
2019-04-16T15:45:41.714Z,19.80
2019-04-16T15:48:17.956Z,19.50
2019-04-16T15:51:03.708Z,19.30
2019-04-16T15:53:39.151Z,19.30
2019-04-16T15:56:08.883Z,19.60
2019-04-16T15:58:44.603Z,19.70
2019-04-16T16:01:16.918Z,19.70
2019-04-16T16:03:55.208Z,19.90
2019-04-16T16:06:24.842Z,19.50
2019-04-16T16:09:12.154Z,19.50
2019-04-16T16:11:44.635Z,19.50
2019-04-16T16:14:12.816Z,19.30
2019-04-16T16:16:42.240Z,19.30
2019-04-16T16:19:12.043Z,19.50
2019-04-16T16:21:40.278Z,19.80
2019-04-16T16:24:08.533Z,19.90
2019-04-16T16:26:36.849Z,19.90
2019-04-16T16:29:05.046Z,19.80
2019-04-16T16:31:35.584Z,19.60
2019-04-16T16:34:02.811Z,19.40
2019-04-16T16:36:30.811Z,19.20
2019-04-16T16:38:58.819Z,18.90
2019-04-16T16:41:26.852Z,18.70
2019-04-16T16:43:54.856Z,18.70
2019-04-16T16:46:55.657Z,18.90
2019-04-16T16:49:10.321Z,18.80
2019-04-16T16:51:40.014Z,18.80
2019-04-16T16:54:09.639Z,18.90
2019-04-16T16:56:39.248Z,19.00
2019-04-16T16:59:11.642Z,18.80
2019-04-16T17:01:54.550Z,19.00
2019-04-16T17:04:24.435Z,19.20
2019-04-16T17:06:52.530Z,18.60
2019-04-16T17:09:30.387Z,18.40
2019-04-16T17:11:59.239Z,18.40
2019-04-16T17:14:27.284Z,18.20
2019-04-16T17:16:55.554Z,18.60
2019-04-16T17:19:23.613Z,18.60
2019-04-16T17:21:51.614Z,18.40
2019-04-16T17:24:19.675Z,18.20
2019-04-16T17:26:50.102Z,18.10
2019-04-16T17:29:19.852Z,18.10
2019-04-16T17:31:48.271Z,18.00
2019-04-16T17:34:16.441Z,17.90
2019-04-16T17:36:44.421Z,18.10
2019-04-16T17:39:14.077Z,17.70
2019-04-16T17:41:43.721Z,17.70
2019-04-16T17:44:29.264Z,17.80
2019-04-16T17:47:02.006Z,17.80
2019-04-16T17:49:38.652Z,17.60
2019-04-16T17:52:11.329Z,17.50
2019-04-16T17:54:41.042Z,17.50
2019-04-16T17:57:29.864Z,17.20
2019-04-16T18:00:16.417Z,17.00
2019-04-16T18:02:52.110Z,16.90
2019-04-16T18:05:36.929Z,16.90
2019-04-16T18:08:15.246Z,16.70
2019-04-16T18:10:47.912Z,16.50
2019-04-16T18:13:17.621Z,16.40
2019-04-16T18:15:50.035Z,16.40
2019-04-16T18:18:25.621Z,16.30
2019-04-16T18:20:58.542Z,16.40
2019-04-16T18:23:32.947Z,16.70
2019-04-16T18:26:18.913Z,17.10
2019-04-16T18:28:54.346Z,17.30
2019-04-16T18:31:26.799Z,17.30
2019-04-16T18:33:56.443Z,16.70
2019-04-16T18:36:26.240Z,16.70
2019-04-16T18:39:12.320Z,16.90
2019-04-16T18:41:41.995Z,16.70
2019-04-16T18:44:11.684Z,17.10
2019-04-16T18:46:44.525Z,16.80
2019-04-16T18:49:20.023Z,16.60
2019-04-16T18:51:48.041Z,16.30
2019-04-16T18:54:16.090Z,16.20
2019-04-16T18:56:44.198Z,16.10
2019-04-16T18:59:12.381Z,16.00
2019-04-16T19:01:42.077Z,16.10
2019-04-16T19:04:10.239Z,16.10
2019-04-16T19:06:40.111Z,16.30
2019-04-16T19:09:08.370Z,16.10
2019-04-16T19:11:36.464Z,16.10
2019-04-16T19:14:04.619Z,16.00
2019-04-16T19:16:32.712Z,15.90
2019-04-16T19:19:00.800Z,15.80
2019-04-16T19:21:28.818Z,15.70
2019-04-16T19:23:56.954Z,15.90
2019-04-16T19:26:25.008Z,16.00
2019-04-16T19:28:53.510Z,15.90
2019-04-16T19:31:23.143Z,15.90
2019-04-16T19:33:51.306Z,15.80
2019-04-16T19:36:19.740Z,15.90
2019-04-16T19:38:49.078Z,15.70
2019-04-16T19:41:17.378Z,15.70
2019-04-16T19:43:45.506Z,15.50
2019-04-16T19:46:15.568Z,15.40
2019-04-16T19:48:44.638Z,15.30
2019-04-16T19:51:19.457Z,15.30
2019-04-16T19:53:47.637Z,15.30
2019-04-16T19:56:18.644Z,15.40
2019-04-16T19:58:47.164Z,15.40
2019-04-16T20:01:21.445Z,15.30
2019-04-16T20:03:49.699Z,15.20
2019-04-16T20:06:25.338Z,15.30
2019-04-16T20:08:51.065Z,15.60
2019-04-16T20:11:26.068Z,15.90
2019-04-16T20:13:54.367Z,16.10
2019-04-16T20:16:22.488Z,16.20
2019-04-16T20:18:51.718Z,16.10
2019-04-16T20:21:20.149Z,16.40
2019-04-16T20:23:48.422Z,16.40
2019-04-16T20:26:17.251Z,16.50
2019-04-16T20:28:48.453Z,16.70
2019-04-16T20:31:15.890Z,16.50
2019-04-16T20:33:44.754Z,16.40
2019-04-16T20:36:12.944Z,16.40
2019-04-16T20:38:42.328Z,16.50
2019-04-16T20:41:18.163Z,16.50
2019-04-16T20:43:45.137Z,16.60
2019-04-16T20:46:15.297Z,16.60
2019-04-16T20:48:45.819Z,16.40
2019-04-16T20:51:14.148Z,16.40
2019-04-16T20:53:42.251Z,16.50
2019-04-16T20:56:10.910Z,16.10
2019-04-16T20:58:39.105Z,16.10
2019-04-16T21:01:09.278Z,16.00
2019-04-16T21:03:40.547Z,15.60
2019-04-16T21:06:10.078Z,15.40
2019-04-16T21:08:38.956Z,15.20
2019-04-16T21:11:09.491Z,15.30
2019-04-16T21:13:38.330Z,15.40
2019-04-16T21:16:06.844Z,15.30
2019-04-16T21:18:35.302Z,15.10
2019-04-16T21:21:04.613Z,15.20
2019-04-16T21:23:34.744Z,15.30
2019-04-16T21:26:02.590Z,15.20
2019-04-16T21:28:32.317Z,14.80
2019-04-16T21:31:01.983Z,15.00
2019-04-16T21:33:34.597Z,15.00
2019-04-16T21:36:09.713Z,15.30
2019-04-16T21:38:45.232Z,15.40
2019-04-16T21:41:12.222Z,15.50
2019-04-16T21:43:40.414Z,15.10
2019-04-16T21:46:08.497Z,15.30
2019-04-16T21:48:36.535Z,15.30
2019-04-16T21:51:04.515Z,15.50
2019-04-16T21:53:32.617Z,15.40
2019-04-16T21:56:00.675Z,15.20
2019-04-16T21:58:28.828Z,15.20
2019-04-16T22:00:59.754Z,15.20
2019-04-16T22:03:29.799Z,15.20
2019-04-16T22:05:57.998Z,15.30
2019-04-16T22:08:29.419Z,15.20
2019-04-16T22:10:55.971Z,15.20
2019-04-16T22:13:24.032Z,15.30
2019-04-16T22:15:53.730Z,15.20
2019-04-16T22:18:21.724Z,14.90
2019-04-16T22:20:49.786Z,14.80
2019-04-16T22:23:19.278Z,14.70
2019-04-16T22:25:47.587Z,14.60
2019-04-16T22:28:15.651Z,14.50
2019-04-16T22:30:43.711Z,14.50
2019-04-16T22:33:11.706Z,14.50
2019-04-16T22:35:39.745Z,14.80
2019-04-16T22:38:13.262Z,14.50
2019-04-16T22:40:39.133Z,14.60
2019-04-16T22:43:14.530Z,15.00
2019-04-16T22:45:46.901Z,15.30
2019-04-16T22:48:14.967Z,15.20
2019-04-16T22:50:43.030Z,15.10
2019-04-16T22:53:11.040Z,15.10
2019-04-16T22:55:42.460Z,14.80
2019-04-16T22:58:10.408Z,14.70
